createdAt,value
2022-07-25T00:01:58.074Z,97862.25
2022-07-25T00:04:28.103Z,97862.25
2022-07-25T00:06:55.954Z,97864.44
2022-07-25T00:09:23.611Z,97857.84
2022-07-25T00:11:51.233Z,97852.72
2022-07-25T00:14:18.907Z,97851.50
2022-07-25T00:16:46.653Z,97846.88
2022-07-25T00:19:14.432Z,97846.88
2022-07-25T00:21:42.013Z,97848.56
2022-07-25T00:24:10.514Z,97846.06
2022-07-25T00:26:40.445Z,97844.44
2022-07-25T00:29:08.262Z,97838.91
2022-07-25T00:31:36.140Z,97837.28
2022-07-25T00:34:04.478Z,97834.88
2022-07-25T00:36:32.273Z,97835.19
2022-07-25T00:39:00.262Z,97831.94
2022-07-25T00:41:27.909Z,97831.44
2022-07-25T00:43:55.631Z,97836.31
2022-07-25T00:46:23.902Z,97828.19
2022-07-25T00:48:51.820Z,97832.00
2022-07-25T00:51:19.631Z,97836.03
2022-07-25T00:53:47.750Z,97824.09
2022-07-25T00:56:17.075Z,97826.31
2022-07-25T00:58:45.753Z,97815.25
2022-07-25T01:01:13.654Z,97819.47
2022-07-25T01:03:41.771Z,97816.50
2022-07-25T01:06:09.411Z,97821.13
2022-07-25T01:08:37.467Z,97810.56
2022-07-25T01:11:05.473Z,97816.78
2022-07-25T01:13:34.842Z,97811.06
2022-07-25T01:16:02.593Z,97816.13
2022-07-25T01:18:30.592Z,97818.56
2022-07-25T01:20:58.148Z,97811.44
2022-07-25T01:23:25.850Z,97811.00
2022-07-25T01:25:53.469Z,97798.28
2022-07-25T01:28:21.128Z,97805.28
2022-07-25T01:31:21.547Z,97793.56
2022-07-25T01:33:49.249Z,97803.69
2022-07-25T01:36:16.931Z,97790.19
2022-07-25T01:38:44.610Z,97787.19
2022-07-25T01:41:12.354Z,97786.31
2022-07-25T01:43:50.114Z,97779.22
2022-07-25T01:46:18.096Z,97777.41
2022-07-25T01:48:45.852Z,97783.34
2022-07-25T01:51:13.707Z,97777.41
2022-07-25T01:53:41.333Z,97778.75
2022-07-25T01:56:12.251Z,97776.59
2022-07-25T01:58:40.170Z,97781.41
2022-07-25T02:01:07.926Z,97771.44
2022-07-25T02:03:35.670Z,97776.03
2022-07-25T02:06:07.170Z,97771.75
2022-07-25T02:08:35.157Z,97771.75
2022-07-25T02:11:02.873Z,97770.28
2022-07-25T02:13:30.761Z,97773.22
2022-07-25T02:15:58.290Z,97767.50
2022-07-25T02:18:25.950Z,97770.81
2022-07-25T02:20:53.527Z,97767.56
2022-07-25T02:23:21.150Z,97764.06
2022-07-25T02:25:48.809Z,97766.03
2022-07-25T02:28:16.557Z,97763.06
2022-07-25T02:30:44.293Z,97756.03
2022-07-25T02:33:12.006Z,97755.59
2022-07-25T02:35:39.731Z,97763.13
2022-07-25T02:38:07.609Z,97756.38
2022-07-25T02:40:35.210Z,97757.72
2022-07-25T02:43:02.873Z,97753.09
2022-07-25T02:45:30.429Z,97754.47
2022-07-25T02:47:58.027Z,97756.97
2022-07-25T02:50:25.630Z,97744.25
2022-07-25T02:52:53.208Z,97749.91
2022-07-25T02:55:20.808Z,97750.03
2022-07-25T02:57:48.550Z,97747.22
2022-07-25T03:00:16.991Z,97751.84
2022-07-25T03:02:44.929Z,97750.72
2022-07-25T03:05:15.026Z,97749.44
2022-07-25T03:07:44.390Z,97751.03
2022-07-25T03:10:14.252Z,97751.75
2022-07-25T03:12:43.170Z,97743.63
2022-07-25T03:15:12.726Z,97755.56
2022-07-25T03:17:40.917Z,97743.00
2022-07-25T03:20:09.460Z,97742.78
2022-07-25T03:22:37.469Z,97737.09
2022-07-25T03:25:05.745Z,97737.19
2022-07-25T03:27:43.269Z,97734.59
2022-07-25T03:30:12.429Z,97734.34
2022-07-25T03:32:41.445Z,97735.09
2022-07-25T03:35:09.715Z,97737.72
2022-07-25T03:37:37.487Z,97739.06
2022-07-25T03:40:05.968Z,97733.94
2022-07-25T03:42:35.354Z,97729.50
2022-07-25T03:45:04.069Z,97735.75
2022-07-25T03:47:31.664Z,97725.09
2022-07-25T03:49:59.266Z,97720.63
2022-07-25T03:52:26.850Z,97721.78
2022-07-25T03:54:54.368Z,97723.69
2022-07-25T03:57:21.989Z,97723.75
2022-07-25T03:59:49.494Z,97716.66
2022-07-25T04:02:17.142Z,97711.88
2022-07-25T04:04:44.813Z,97711.22
2022-07-25T04:07:12.445Z,97712.50
2022-07-25T04:09:39.928Z,97703.06
2022-07-25T04:12:07.649Z,97712.50
2022-07-25T04:14:35.288Z,97702.72
2022-07-25T04:17:02.919Z,97696.94
2022-07-25T04:19:30.605Z,97692.47
2022-07-25T04:21:58.209Z,97701.28
2022-07-25T04:24:25.871Z,97693.31
2022-07-25T04:26:53.571Z,97688.06
2022-07-25T04:29:21.208Z,97683.63
2022-07-25T04:31:49.032Z,97692.53
2022-07-25T04:34:16.945Z,97691.75
2022-07-25T04:36:44.667Z,97687.34
2022-07-25T04:39:12.349Z,97688.84
2022-07-25T04:41:40.171Z,97675.47
2022-07-25T04:44:09.105Z,97675.19
2022-07-25T04:46:37.148Z,97667.81
2022-07-25T04:49:05.068Z,97674.66
2022-07-25T04:51:32.726Z,97661.31
2022-07-25T04:54:00.288Z,97653.88
2022-07-25T04:56:27.993Z,97653.63
2022-07-25T04:58:55.715Z,97646.09
2022-07-25T05:01:23.424Z,97648.38
2022-07-25T05:03:51.067Z,97642.31
2022-07-25T05:06:19.719Z,97640.09
2022-07-25T05:08:47.495Z,97633.72
2022-07-25T05:11:15.207Z,97636.63
2022-07-25T05:13:42.832Z,97628.50
2022-07-25T05:16:10.497Z,97630.81
2022-07-25T05:18:38.115Z,97632.09
2022-07-25T05:21:05.751Z,97636.38
2022-07-25T05:23:33.310Z,97639.84
2022-07-25T05:26:02.648Z,97632.41
2022-07-25T05:28:30.248Z,97635.41
2022-07-25T05:30:57.908Z,97628.97
2022-07-25T05:33:26.746Z,97628.13
2022-07-25T05:35:54.334Z,97623.44
2022-07-25T05:38:22.028Z,97620.22
2022-07-25T05:40:52.393Z,97613.50
2022-07-25T05:43:20.068Z,97617.50
2022-07-25T05:45:47.642Z,97615.75
2022-07-25T05:48:16.208Z,97621.41
2022-07-25T05:50:44.014Z,97615.06
2022-07-25T05:53:11.643Z,97610.09
2022-07-25T05:55:40.702Z,97602.78
2022-07-25T05:58:09.689Z,97612.88
2022-07-25T06:00:39.350Z,97615.25
2022-07-25T06:03:07.156Z,97616.00
2022-07-25T06:05:34.763Z,97612.28
2022-07-25T06:08:02.473Z,97602.38
2022-07-25T06:10:30.043Z,97605.53
2022-07-25T06:12:57.808Z,97604.50
2022-07-25T06:15:26.670Z,97601.19
2022-07-25T06:17:55.160Z,97594.34
2022-07-25T06:20:23.482Z,97598.84
2022-07-25T06:22:51.455Z,97590.31
2022-07-25T06:25:19.450Z,97589.69
2022-07-25T06:27:47.368Z,97596.78
2022-07-25T06:30:20.190Z,97583.78
2022-07-25T06:32:51.246Z,97588.59
2022-07-25T06:35:19.109Z,97592.84
2022-07-25T06:37:47.098Z,97584.19
2022-07-25T06:40:15.386Z,97589.97
2022-07-25T06:42:45.025Z,97579.84
2022-07-25T06:45:14.264Z,97581.78
2022-07-25T06:47:43.146Z,97576.59
2022-07-25T06:50:14.388Z,97582.53
2022-07-25T06:52:42.928Z,97582.56
2022-07-25T06:55:11.906Z,97579.03
2022-07-25T06:57:40.027Z,97583.63
2022-07-25T07:00:10.804Z,97572.38
2022-07-25T07:02:48.547Z,97572.22
2022-07-25T07:05:16.106Z,97567.00
2022-07-25T07:07:47.616Z,97571.59
2022-07-25T07:10:16.886Z,97569.03
2022-07-25T07:12:45.185Z,97566.03
2022-07-25T07:15:13.773Z,97561.78
2022-07-25T07:17:42.047Z,97561.47
2022-07-25T07:20:10.436Z,97555.63
2022-07-25T07:22:45.662Z,97565.31
2022-07-25T07:25:15.609Z,97563.31
2022-07-25T07:27:44.626Z,97563.41
2022-07-25T07:30:15.003Z,97569.19
2022-07-25T07:32:43.845Z,97559.94
2022-07-25T07:35:12.466Z,97565.28
2022-07-25T07:37:43.449Z,97555.91
2022-07-25T07:40:17.866Z,97551.88
2022-07-25T07:42:48.241Z,97567.25
2022-07-25T07:45:23.385Z,97553.22
2022-07-25T07:47:53.266Z,97552.28
2022-07-25T07:50:27.103Z,97547.28
2022-07-25T07:52:56.698Z,97551.81
2022-07-25T07:55:42.784Z,97559.50
2022-07-25T07:58:16.225Z,97556.75
2022-07-25T08:00:45.126Z,97557.22
2022-07-25T08:03:12.999Z,97555.69
2022-07-25T08:05:43.546Z,97555.44
2022-07-25T08:08:13.299Z,97559.59
2022-07-25T08:10:44.560Z,97549.22
2022-07-25T08:13:24.241Z,97553.56
2022-07-25T08:15:54.414Z,97544.19
2022-07-25T08:18:22.045Z,97542.81
2022-07-25T08:20:50.702Z,97550.63
2022-07-25T08:23:19.884Z,97553.22
2022-07-25T08:25:48.726Z,97548.66
2022-07-25T08:28:16.393Z,97551.59
2022-07-25T08:30:44.207Z,97557.22
2022-07-25T08:33:14.761Z,97559.75
2022-07-25T08:35:52.079Z,97549.13
2022-07-25T08:38:24.190Z,97550.81
2022-07-25T08:40:55.983Z,97558.75
2022-07-25T08:43:23.926Z,97556.56
2022-07-25T08:45:55.983Z,97561.97
2022-07-25T08:48:26.130Z,97556.91
2022-07-25T08:50:57.491Z,97556.28
2022-07-25T08:53:34.602Z,97547.41
2022-07-25T08:56:13.284Z,97544.13
2022-07-25T08:58:44.230Z,97538.06
2022-07-25T09:01:14.392Z,97540.00
2022-07-25T09:03:43.461Z,97547.41
2022-07-25T09:06:19.465Z,97548.19
2022-07-25T09:08:58.103Z,97549.06
2022-07-25T09:11:37.269Z,97541.13
2022-07-25T09:14:13.101Z,97535.69
2022-07-25T09:16:49.891Z,97528.59
2022-07-25T09:19:20.943Z,97529.38
2022-07-25T09:22:20.865Z,97540.47
2022-07-25T09:24:48.786Z,97532.81
2022-07-25T09:27:18.404Z,97534.13
2022-07-25T09:29:46.248Z,97534.13
2022-07-25T09:32:19.545Z,97535.34
2022-07-25T09:34:48.241Z,97534.50
2022-07-25T09:37:19.010Z,97524.28
2022-07-25T09:39:49.804Z,97521.00
2022-07-25T09:42:26.244Z,97524.63
2022-07-25T09:45:12.972Z,97528.19
2022-07-25T09:48:05.003Z,97537.34
2022-07-25T09:50:33.581Z,97514.34
2022-07-25T09:53:02.847Z,97515.97
2022-07-25T09:55:31.554Z,97519.09
2022-07-25T09:57:59.341Z,97508.84
2022-07-25T10:00:29.344Z,97515.13
2022-07-25T10:03:18.565Z,97509.63
2022-07-25T10:06:03.702Z,97498.47
2022-07-25T10:08:37.284Z,97504.81
2022-07-25T10:11:06.865Z,97498.44
2022-07-25T10:13:36.764Z,97496.72
2022-07-25T10:16:27.983Z,97492.03
2022-07-25T10:18:58.523Z,97488.09
2022-07-25T10:21:28.505Z,97485.00
2022-07-25T10:24:10.583Z,97485.91
2022-07-25T10:26:51.094Z,97478.28
2022-07-25T10:29:18.866Z,97484.56
2022-07-25T10:31:51.221Z,97475.00
2022-07-25T10:34:33.832Z,97468.47
2022-07-25T10:37:18.403Z,97467.69
2022-07-25T10:39:50.024Z,97470.06
2022-07-25T10:42:21.746Z,97461.34
2022-07-25T10:44:57.802Z,97458.06
2022-07-25T10:47:27.665Z,97456.56
2022-07-25T10:50:21.598Z,97440.00
2022-07-25T10:53:00.926Z,97443.53
2022-07-25T10:55:29.366Z,97435.63
2022-07-25T10:58:21.861Z,97436.78
2022-07-25T11:00:51.474Z,97439.19
2022-07-25T11:03:20.980Z,97432.03
2022-07-25T11:05:49.219Z,97428.13
2022-07-25T11:08:24.416Z,97424.09
2022-07-25T11:10:53.744Z,97420.66
2022-07-25T11:13:21.903Z,97418.63
2022-07-25T11:15:50.061Z,97419.78
2022-07-25T11:18:18.710Z,97416.25
2022-07-25T11:20:46.463Z,97426.19
2022-07-25T11:23:22.326Z,97414.72
2022-07-25T11:25:51.670Z,97408.72
2022-07-25T11:28:19.246Z,97407.47
2022-07-25T11:30:46.824Z,97394.09
2022-07-25T11:33:17.778Z,97393.28
2022-07-25T11:35:45.683Z,97385.38
2022-07-25T11:38:14.804Z,97386.22
2022-07-25T11:40:45.691Z,97382.66
2022-07-25T11:43:23.975Z,97382.66
2022-07-25T11:46:18.813Z,97382.22
2022-07-25T11:48:47.987Z,97382.16
2022-07-25T11:51:19.098Z,97371.56
2022-07-25T11:53:49.893Z,97360.84
2022-07-25T11:56:41.881Z,97360.38
2022-07-25T11:59:11.151Z,97361.16
2022-07-25T12:01:41.244Z,97346.97
2022-07-25T12:04:15.682Z,97352.16
2022-07-25T12:06:48.777Z,97347.38
2022-07-25T12:09:20.620Z,97334.22
2022-07-25T12:11:49.707Z,97331.50
2022-07-25T12:14:17.427Z,97331.28
2022-07-25T12:16:45.166Z,97327.34
2022-07-25T12:19:21.339Z,97329.28
2022-07-25T12:21:49.025Z,97322.41
2022-07-25T12:24:16.579Z,97320.94
2022-07-25T12:26:44.399Z,97312.50
2022-07-25T12:29:11.924Z,97315.25
2022-07-25T12:31:39.723Z,97303.78
2022-07-25T12:34:07.307Z,97311.81
2022-07-25T12:36:41.280Z,97304.63
2022-07-25T12:39:09.265Z,97310.81
2022-07-25T12:41:37.126Z,97296.41
2022-07-25T12:44:05.062Z,97296.16
2022-07-25T12:46:32.918Z,97299.88
2022-07-25T12:49:00.715Z,97297.13
2022-07-25T12:51:28.359Z,97295.38
2022-07-25T12:53:56.020Z,97290.22
2022-07-25T12:56:23.602Z,97286.63
2022-07-25T12:58:51.299Z,97286.84
2022-07-25T13:01:19.236Z,97280.59
2022-07-25T13:03:47.542Z,97276.66
2022-07-25T13:06:15.302Z,97284.81
2022-07-25T13:08:42.984Z,97272.56
2022-07-25T13:11:10.529Z,97267.53
2022-07-25T13:13:38.282Z,97275.97
2022-07-25T13:16:06.131Z,97271.59
2022-07-25T13:18:34.103Z,97264.31
2022-07-25T13:21:03.704Z,97255.44
2022-07-25T13:23:31.803Z,97251.84
2022-07-25T13:26:00.843Z,97254.69
2022-07-25T13:28:29.041Z,97243.47
2022-07-25T13:30:57.203Z,97250.19
2022-07-25T13:33:24.884Z,97250.09
2022-07-25T13:35:52.481Z,97240.31
2022-07-25T13:38:20.758Z,97244.63
2022-07-25T13:40:48.503Z,97233.94
2022-07-25T13:43:16.204Z,97231.28
2022-07-25T13:45:43.961Z,97224.16
2022-07-25T13:48:28.915Z,97226.13
2022-07-25T13:50:57.952Z,97229.72
2022-07-25T13:53:29.927Z,97216.72
2022-07-25T13:55:59.442Z,97219.88
2022-07-25T13:58:28.040Z,97213.00
2022-07-25T14:00:56.139Z,97197.06
2022-07-25T14:03:24.103Z,97209.28
2022-07-25T14:05:52.001Z,97194.63
2022-07-25T14:08:19.801Z,97191.34
2022-07-25T14:10:47.901Z,97193.66
2022-07-25T14:13:21.480Z,97185.84
2022-07-25T14:15:49.070Z,97189.13
2022-07-25T14:18:16.477Z,97181.56
2022-07-25T14:20:44.165Z,97185.88
2022-07-25T14:23:11.700Z,97170.97
2022-07-25T14:25:39.330Z,97169.53
2022-07-25T14:28:06.880Z,97163.25
2022-07-25T14:30:34.741Z,97162.41
2022-07-25T14:33:02.229Z,97160.34
2022-07-25T14:35:32.551Z,97153.97
2022-07-25T14:38:00.918Z,97151.56
2022-07-25T14:40:28.475Z,97155.09
2022-07-25T14:42:56.028Z,97154.44
2022-07-25T14:45:23.557Z,97157.34
2022-07-25T14:47:59.533Z,97150.66
2022-07-25T14:50:31.567Z,97139.53
2022-07-25T14:52:59.133Z,97138.56
2022-07-25T14:55:27.090Z,97136.75
2022-07-25T14:57:54.718Z,97130.00
2022-07-25T15:00:27.586Z,97127.09
2022-07-25T15:02:57.460Z,97122.25
2022-07-25T15:05:25.042Z,97120.31
2022-07-25T15:07:52.607Z,97113.59
2022-07-25T15:10:20.151Z,97106.91
2022-07-25T15:12:51.469Z,97105.72
2022-07-25T15:15:25.574Z,97101.81
2022-07-25T15:17:53.727Z,97103.72
2022-07-25T15:20:21.507Z,97097.28
2022-07-25T15:22:49.027Z,97088.25
2022-07-25T15:25:50.992Z,97093.53
2022-07-25T15:28:19.596Z,97101.06
2022-07-25T15:30:52.037Z,97085.25
2022-07-25T15:33:19.848Z,97082.41
2022-07-25T15:35:48.288Z,97080.47
2022-07-25T15:38:16.422Z,97090.81
2022-07-25T15:40:45.528Z,97088.47
2022-07-25T15:43:13.350Z,97078.97
2022-07-25T15:45:44.156Z,97093.19
2022-07-25T15:48:13.862Z,97077.38
2022-07-25T15:50:43.626Z,97074.66
2022-07-25T15:53:12.297Z,97065.53
2022-07-25T15:55:41.219Z,97065.88
2022-07-25T15:58:10.376Z,97059.63
2022-07-25T16:00:38.681Z,97050.59
2022-07-25T16:03:07.196Z,97052.94
2022-07-25T16:05:35.290Z,97052.56
2022-07-25T16:08:03.566Z,97050.56
2022-07-25T16:10:32.777Z,97048.97
2022-07-25T16:13:01.383Z,97053.72
2022-07-25T16:15:29.136Z,97042.28
2022-07-25T16:18:02.136Z,97044.56
2022-07-25T16:20:34.021Z,97034.63
2022-07-25T16:23:01.971Z,97040.09
2022-07-25T16:25:30.307Z,97029.47
2022-07-25T16:27:59.069Z,97022.75
2022-07-25T16:30:27.927Z,97023.47
2022-07-25T16:32:55.734Z,97021.03
2022-07-25T16:35:23.677Z,97022.69
2022-07-25T16:37:51.754Z,97014.31
2022-07-25T16:40:19.294Z,97014.00
2022-07-25T16:42:49.827Z,97012.09
2022-07-25T16:45:17.359Z,97000.72
2022-07-25T16:47:44.926Z,96999.97
2022-07-25T16:50:12.411Z,97004.69
2022-07-25T16:52:40.058Z,96991.34
2022-07-25T16:55:07.836Z,96990.94
2022-07-25T16:57:38.749Z,96981.06
2022-07-25T17:00:08.937Z,96988.53
2022-07-25T17:02:36.646Z,96988.13
2022-07-25T17:05:04.675Z,96981.81
2022-07-25T17:07:32.667Z,96971.94
2022-07-25T17:10:00.205Z,96967.56
2022-07-25T17:12:27.812Z,96964.38
2022-07-25T17:14:55.297Z,96963.50
2022-07-25T17:17:22.836Z,96960.31
2022-07-25T17:19:50.252Z,96960.22
2022-07-25T17:22:17.802Z,96957.44
2022-07-25T17:24:45.265Z,96949.16
2022-07-25T17:27:13.099Z,96964.81
2022-07-25T17:29:40.625Z,96953.34
2022-07-25T17:32:08.332Z,96959.28
2022-07-25T17:34:35.866Z,96959.59
2022-07-25T17:37:03.587Z,96961.16
2022-07-25T17:39:31.455Z,96963.16
2022-07-25T17:41:59.015Z,96969.50
2022-07-25T17:44:27.074Z,96959.28
2022-07-25T17:46:54.890Z,96953.41
2022-07-25T17:49:22.524Z,96955.66
2022-07-25T17:51:50.468Z,96955.63
2022-07-25T17:54:18.034Z,96959.56
2022-07-25T17:56:45.755Z,96956.03
2022-07-25T17:59:13.885Z,96959.09
2022-07-25T18:01:41.650Z,96955.00
2022-07-25T18:04:09.656Z,96956.53
2022-07-25T18:06:37.624Z,96962.00
2022-07-25T18:09:05.221Z,96959.66
2022-07-25T18:11:32.895Z,96959.69
2022-07-25T18:14:00.543Z,96960.41
2022-07-25T18:16:28.202Z,96950.91
2022-07-25T18:18:55.906Z,96958.59
2022-07-25T18:21:24.633Z,96953.44
2022-07-25T18:23:52.395Z,96956.59
2022-07-25T18:26:21.973Z,96960.84
2022-07-25T18:28:49.824Z,96958.88
2022-07-25T18:31:17.626Z,96973.03
2022-07-25T18:33:45.295Z,97001.25
2022-07-25T18:36:13.142Z,97030.47
2022-07-25T18:38:40.854Z,97030.66
2022-07-25T18:43:58.821Z,97044.00
2022-07-25T18:46:30.363Z,97050.56
2022-07-25T18:49:00.805Z,97053.44
2022-07-25T18:51:28.482Z,97061.06
2022-07-25T18:53:56.132Z,97061.44
2022-07-25T18:56:23.878Z,97055.63
2022-07-25T18:58:51.673Z,97063.88
2022-07-25T19:01:21.182Z,97057.25
2022-07-25T19:03:49.252Z,97067.19
2022-07-25T19:06:17.590Z,97071.94
2022-07-25T19:08:46.342Z,97080.63
2022-07-25T19:11:15.548Z,97079.03
2022-07-25T19:13:51.171Z,97083.03
2022-07-25T19:16:19.556Z,97087.44
2022-07-25T19:18:47.543Z,97097.38
2022-07-25T19:21:15.694Z,97110.44
2022-07-25T19:23:49.810Z,97105.31
2022-07-25T19:26:19.919Z,97110.03
2022-07-25T19:28:47.880Z,97110.75
2022-07-25T19:31:15.749Z,97099.97
2022-07-25T19:33:45.698Z,97098.81
2022-07-25T19:36:14.184Z,97089.81
2022-07-25T19:38:42.069Z,97094.75
2022-07-25T19:41:09.742Z,97096.34
2022-07-25T19:43:37.723Z,97094.50
2022-07-25T19:46:05.605Z,97095.38
2022-07-25T19:48:33.353Z,97098.22
2022-07-25T19:51:01.190Z,97091.78
2022-07-25T19:53:29.007Z,97094.97
2022-07-25T19:55:56.780Z,97102.69
2022-07-25T19:58:24.617Z,97097.16
2022-07-25T20:00:52.351Z,97101.03
2022-07-25T20:03:23.239Z,97104.47
2022-07-25T20:05:52.336Z,97115.63
2022-07-25T20:08:20.034Z,97117.47
2022-07-25T20:10:48.517Z,97120.22
2022-07-25T20:13:16.450Z,97115.59
2022-07-25T20:15:44.081Z,97124.03
2022-07-25T20:18:16.039Z,97125.50
2022-07-25T20:20:47.807Z,97119.50
2022-07-25T20:23:15.319Z,97114.72
2022-07-25T20:25:43.189Z,97129.75
2022-07-25T20:28:11.091Z,97123.50
2022-07-25T20:30:38.789Z,97127.16
2022-07-25T20:33:09.054Z,97138.53
2022-07-25T20:35:38.362Z,97133.09
2022-07-25T20:38:09.806Z,97140.13
2022-07-25T20:40:48.246Z,97123.41
2022-07-25T20:43:17.950Z,97113.66
2022-07-25T20:45:47.549Z,97109.78
2022-07-25T20:48:15.489Z,97096.44
2022-07-25T20:50:43.589Z,97094.06
2022-07-25T20:53:11.829Z,97106.16
2022-07-25T20:55:39.422Z,97107.25
2022-07-25T20:58:07.212Z,97095.78
2022-07-25T21:00:34.926Z,97091.47
2022-07-25T21:03:02.921Z,97099.09
2022-07-25T21:05:30.631Z,97090.31
2022-07-25T21:07:58.238Z,97072.94
2022-07-25T21:10:26.368Z,97071.22
2022-07-25T21:12:56.051Z,97081.94
2022-07-25T21:15:24.401Z,97084.09
2022-07-25T21:17:52.033Z,97093.97
2022-07-25T21:20:19.456Z,97096.25
2022-07-25T21:22:47.091Z,97097.25
2022-07-25T21:25:14.702Z,97097.81
2022-07-25T21:27:42.360Z,97100.44
2022-07-25T21:30:11.761Z,97106.25
2022-07-25T21:32:40.959Z,97106.91
2022-07-25T21:35:09.183Z,97100.22
2022-07-25T21:37:36.950Z,97098.28
2022-07-25T21:40:04.990Z,97105.78
2022-07-25T21:42:32.490Z,97101.47
2022-07-25T21:45:00.147Z,97098.75
2022-07-25T21:47:27.896Z,97095.53
2022-07-25T21:50:14.236Z,97099.41
2022-07-25T21:52:52.709Z,97088.16
2022-07-25T21:55:21.790Z,97085.44
2022-07-25T21:57:51.388Z,97075.44
2022-07-25T22:00:19.870Z,97072.69
2022-07-25T22:02:47.768Z,97070.91
2022-07-25T22:05:17.350Z,97071.22
2022-07-25T22:07:47.455Z,97059.06
2022-07-25T22:10:16.621Z,97062.16
2022-07-25T22:12:44.396Z,97073.75
2022-07-25T22:15:13.021Z,97073.63
2022-07-25T22:17:48.231Z,97066.44
2022-07-25T22:20:18.672Z,97069.03
2022-07-25T22:22:48.079Z,97084.00
2022-07-25T22:25:16.662Z,97089.31
2022-07-25T22:27:44.523Z,97098.84
2022-07-25T22:30:18.265Z,97106.91
2022-07-25T22:32:49.520Z,97130.41
2022-07-25T22:35:17.243Z,97127.53
2022-07-25T22:37:45.987Z,97131.06
2022-07-25T22:40:13.739Z,97124.38
2022-07-25T22:42:41.320Z,97128.56
2022-07-25T22:45:09.749Z,97125.31
2022-07-25T22:47:37.424Z,97137.16
2022-07-25T22:50:05.981Z,97128.94
2022-07-25T22:52:35.172Z,97133.78
2022-07-25T22:55:02.846Z,97138.94
2022-07-25T22:57:30.355Z,97140.59
2022-07-25T23:00:08.111Z,97142.78
2022-07-25T23:02:35.798Z,97154.72
2022-07-25T23:05:05.121Z,97156.34
2022-07-25T23:07:33.830Z,97165.63
2022-07-25T23:10:01.505Z,97169.81
2022-07-25T23:12:29.061Z,97186.50
2022-07-25T23:14:56.820Z,97188.78
2022-07-25T23:17:24.900Z,97190.41
2022-07-25T23:19:54.689Z,97203.88
2022-07-25T23:22:23.943Z,97216.88
2022-07-25T23:24:51.658Z,97224.72
2022-07-25T23:27:19.245Z,97228.41
2022-07-25T23:29:46.990Z,97234.94
2022-07-25T23:32:14.558Z,97237.84
2022-07-25T23:34:42.319Z,97240.22
2022-07-25T23:37:10.458Z,97254.09
2022-07-25T23:39:37.908Z,97267.84
2022-07-25T23:42:05.500Z,97266.56
2022-07-25T23:44:33.179Z,97272.44
2022-07-25T23:47:03.790Z,97276.53
2022-07-25T23:49:32.558Z,97290.56
2022-07-25T23:52:00.205Z,97296.00
2022-07-25T23:54:27.782Z,97313.94
2022-07-25T23:56:55.408Z,97315.31
2022-07-25T23:59:22.988Z,97324.09
